sensor_id;sensor_type;location;lat;lon;timestamp;temperature;humidity
780;DHT22;373;49.342;8.146;2023-04-03T00:00:53;7.00;99.90
780;DHT22;373;49.342;8.146;2023-04-03T00:03:20;7.10;1.00
780;DHT22;373;49.342;8.146;2023-04-03T00:05:47;6.90;99.90
780;DHT22;373;49.342;8.146;2023-04-03T00:08:15;6.80;99.90
780;DHT22;373;49.342;8.146;2023-04-03T00:10:43;7.10;99.90
780;DHT22;373;49.342;8.146;2023-04-03T00:13:10;7.10;1.00
780;DHT22;373;49.342;8.146;2023-04-03T00:15:39;7.20;1.00
780;DHT22;373;49.342;8.146;2023-04-03T00:18:06;7.30;1.00
780;DHT22;373;49.342;8.146;2023-04-03T00:20:34;7.40;1.00
780;DHT22;373;49.342;8.146;2023-04-03T00:23:01;7.10;99.90
780;DHT22;373;49.342;8.146;2023-04-03T00:25:30;6.80;1.00
780;DHT22;373;49.342;8.146;2023-04-03T00:27:57;6.80;1.00
780;DHT22;373;49.342;8.146;2023-04-03T00:30:25;6.70;1.00
780;DHT22;373;49.342;8.146;2023-04-03T00:32:53;6.70;1.00
780;DHT22;373;49.342;8.146;2023-04-03T00:35:21;6.40;1.00
780;DHT22;373;49.342;8.146;2023-04-03T00:37:50;6.30;1.00
780;DHT22;373;49.342;8.146;2023-04-03T00:40:18;6.10;1.00
780;DHT22;373;49.342;8.146;2023-04-03T00:42:48;6.00;1.00
780;DHT22;373;49.342;8.146;2023-04-03T00:45:28;6.00;1.00
780;DHT22;373;49.342;8.146;2023-04-03T00:47:56;6.10;1.00
780;DHT22;373;49.342;8.146;2023-04-03T00:50:25;6.30;1.00
780;DHT22;373;49.342;8.146;2023-04-03T00:52:53;5.90;1.00
780;DHT22;373;49.342;8.146;2023-04-03T00:55:21;6.00;1.00
780;DHT22;373;49.342;8.146;2023-04-03T00:57:49;5.90;1.00
780;DHT22;373;49.342;8.146;2023-04-03T01:00:20;6.00;1.00
780;DHT22;373;49.342;8.146;2023-04-03T01:02:48;6.10;1.00
780;DHT22;373;49.342;8.146;2023-04-03T01:05:16;5.90;1.00
780;DHT22;373;49.342;8.146;2023-04-03T01:07:45;5.80;1.00
780;DHT22;373;49.342;8.146;2023-04-03T01:10:14;5.80;1.00
780;DHT22;373;49.342;8.146;2023-04-03T01:12:45;5.60;1.00
780;DHT22;373;49.342;8.146;2023-04-03T01:15:16;5.60;1.00
780;DHT22;373;49.342;8.146;2023-04-03T01:17:45;5.40;1.00
780;DHT22;373;49.342;8.146;2023-04-03T01:23:26;5.60;1.00
780;DHT22;373;49.342;8.146;2023-04-03T01:25:56;5.40;1.00
780;DHT22;373;49.342;8.146;2023-04-03T01:28:25;5.30;1.00
780;DHT22;373;49.342;8.146;2023-04-03T01:31:05;5.30;1.00
780;DHT22;373;49.342;8.146;2023-04-03T01:33:37;5.50;1.00
780;DHT22;373;49.342;8.146;2023-04-03T01:36:06;5.70;1.00
780;DHT22;373;49.342;8.146;2023-04-03T01:38:34;5.60;1.00
780;DHT22;373;49.342;8.146;2023-04-03T01:41:01;5.50;1.00
780;DHT22;373;49.342;8.146;2023-04-03T01:43:30;5.60;1.00
780;DHT22;373;49.342;8.146;2023-04-03T01:45:57;5.70;1.00
780;DHT22;373;49.342;8.146;2023-04-03T01:48:24;5.70;1.00
780;DHT22;373;49.342;8.146;2023-04-03T01:50:53;5.90;1.00
780;DHT22;373;49.342;8.146;2023-04-03T01:53:20;5.80;1.00
780;DHT22;373;49.342;8.146;2023-04-03T01:55:48;5.90;1.00
780;DHT22;373;49.342;8.146;2023-04-03T01:58:15;5.60;1.00
780;DHT22;373;49.342;8.146;2023-04-03T02:00:43;5.50;1.00
780;DHT22;373;49.342;8.146;2023-04-03T02:03:10;5.60;1.00
780;DHT22;373;49.342;8.146;2023-04-03T02:05:38;5.30;1.00
780;DHT22;373;49.342;8.146;2023-04-03T02:08:06;5.00;1.00
780;DHT22;373;49.342;8.146;2023-04-03T02:10:34;4.80;11.00
780;DHT22;373;49.342;8.146;2023-04-03T02:13:01;4.80;96.30
780;DHT22;373;49.342;8.146;2023-04-03T02:15:28;4.70;99.90
780;DHT22;373;49.342;8.146;2023-04-03T02:17:56;4.60;99.90
780;DHT22;373;49.342;8.146;2023-04-03T02:20:23;4.50;1.00
780;DHT22;373;49.342;8.146;2023-04-03T02:22:50;4.60;1.00
780;DHT22;373;49.342;8.146;2023-04-03T02:25:19;4.60;99.90
780;DHT22;373;49.342;8.146;2023-04-03T02:27:46;4.60;99.90
780;DHT22;373;49.342;8.146;2023-04-03T02:30:13;4.50;99.90
780;DHT22;373;49.342;8.146;2023-04-03T02:32:41;4.50;1.00
780;DHT22;373;49.342;8.146;2023-04-03T02:35:08;4.40;1.00
780;DHT22;373;49.342;8.146;2023-04-03T02:37:36;4.40;1.00
780;DHT22;373;49.342;8.146;2023-04-03T02:40:05;4.40;1.00
780;DHT22;373;49.342;8.146;2023-04-03T02:42:33;4.40;16.50
780;DHT22;373;49.342;8.146;2023-04-03T02:45:03;4.40;1.00
780;DHT22;373;49.342;8.146;2023-04-03T02:47:30;4.40;1.00
780;DHT22;373;49.342;8.146;2023-04-03T02:49:57;4.40;1.00
780;DHT22;373;49.342;8.146;2023-04-03T02:52:24;4.50;99.90
780;DHT22;373;49.342;8.146;2023-04-03T02:54:54;4.40;74.10
780;DHT22;373;49.342;8.146;2023-04-03T02:57:22;4.30;99.90
780;DHT22;373;49.342;8.146;2023-04-03T02:59:50;4.30;99.90
780;DHT22;373;49.342;8.146;2023-04-03T03:02:17;4.30;99.90
780;DHT22;373;49.342;8.146;2023-04-03T03:04:45;4.30;99.90
780;DHT22;373;49.342;8.146;2023-04-03T03:07:12;4.20;99.90
780;DHT22;373;49.342;8.146;2023-04-03T03:09:40;4.20;99.90
780;DHT22;373;49.342;8.146;2023-04-03T03:12:07;4.30;99.90
780;DHT22;373;49.342;8.146;2023-04-03T03:14:34;4.40;1.00
780;DHT22;373;49.342;8.146;2023-04-03T03:17:03;4.30;99.90
780;DHT22;373;49.342;8.146;2023-04-03T03:19:30;4.30;99.90
780;DHT22;373;49.342;8.146;2023-04-03T03:21:57;4.30;99.90
780;DHT22;373;49.342;8.146;2023-04-03T03:24:24;4.20;99.90
780;DHT22;373;49.342;8.146;2023-04-03T03:26:51;4.10;1.00
780;DHT22;373;49.342;8.146;2023-04-03T03:29:18;4.20;1.00
780;DHT22;373;49.342;8.146;2023-04-03T03:31:46;4.30;1.00
780;DHT22;373;49.342;8.146;2023-04-03T03:34:15;4.20;1.00
780;DHT22;373;49.342;8.146;2023-04-03T03:36:42;4.30;99.90
780;DHT22;373;49.342;8.146;2023-04-03T03:39:09;4.20;1.00
780;DHT22;373;49.342;8.146;2023-04-03T03:41:37;4.30;1.00
780;DHT22;373;49.342;8.146;2023-04-03T03:44:04;4.30;99.90
780;DHT22;373;49.342;8.146;2023-04-03T03:46:33;4.30;1.00
780;DHT22;373;49.342;8.146;2023-04-03T03:49:00;4.20;99.90
780;DHT22;373;49.342;8.146;2023-04-03T03:51:29;4.20;1.00
780;DHT22;373;49.342;8.146;2023-04-03T03:53:57;4.20;99.90
780;DHT22;373;49.342;8.146;2023-04-03T03:56:24;4.10;7.10
780;DHT22;373;49.342;8.146;2023-04-03T03:58:53;4.00;1.00
780;DHT22;373;49.342;8.146;2023-04-03T04:01:22;4.10;1.00
780;DHT22;373;49.342;8.146;2023-04-03T04:03:51;4.10;1.00
780;DHT22;373;49.342;8.146;2023-04-03T04:06:23;4.10;1.00
780;DHT22;373;49.342;8.146;2023-04-03T04:08:53;3.90;99.90
780;DHT22;373;49.342;8.146;2023-04-03T04:11:20;4.00;1.00
780;DHT22;373;49.342;8.146;2023-04-03T04:13:49;4.00;1.00
780;DHT22;373;49.342;8.146;2023-04-03T04:16:19;4.00;99.90
780;DHT22;373;49.342;8.146;2023-04-03T04:18:46;3.90;1.00
780;DHT22;373;49.342;8.146;2023-04-03T04:21:13;3.90;99.90
780;DHT22;373;49.342;8.146;2023-04-03T04:23:41;3.90;1.00
780;DHT22;373;49.342;8.146;2023-04-03T04:26:10;3.90;1.00
780;DHT22;373;49.342;8.146;2023-04-03T04:28:38;3.90;1.00
780;DHT22;373;49.342;8.146;2023-04-03T04:31:06;3.80;1.00
780;DHT22;373;49.342;8.146;2023-04-03T04:33:33;3.80;1.00
780;DHT22;373;49.342;8.146;2023-04-03T04:36:03;3.80;1.00
780;DHT22;373;49.342;8.146;2023-04-03T04:40:58;3.80;1.00
780;DHT22;373;49.342;8.146;2023-04-03T04:43:27;3.80;99.90
780;DHT22;373;49.342;8.146;2023-04-03T04:46:02;3.80;1.00
780;DHT22;373;49.342;8.146;2023-04-03T04:48:32;3.80;1.00
780;DHT22;373;49.342;8.146;2023-04-03T04:50:59;3.80;98.50
780;DHT22;373;49.342;8.146;2023-04-03T04:53:27;3.80;1.00
780;DHT22;373;49.342;8.146;2023-04-03T04:55:54;3.90;1.00
780;DHT22;373;49.342;8.146;2023-04-03T04:58:22;3.90;1.00
780;DHT22;373;49.342;8.146;2023-04-03T05:00:58;3.90;1.00
780;DHT22;373;49.342;8.146;2023-04-03T05:03:25;3.90;1.00
780;DHT22;373;49.342;8.146;2023-04-03T05:05:52;3.90;99.90
780;DHT22;373;49.342;8.146;2023-04-03T05:08:20;3.90;1.00
780;DHT22;373;49.342;8.146;2023-04-03T05:10:47;4.00;1.00
780;DHT22;373;49.342;8.146;2023-04-03T05:13:15;4.00;1.00
780;DHT22;373;49.342;8.146;2023-04-03T05:15:42;4.10;99.90
780;DHT22;373;49.342;8.146;2023-04-03T05:18:11;4.20;99.90
780;DHT22;373;49.342;8.146;2023-04-03T05:20:38;4.30;99.90
780;DHT22;373;49.342;8.146;2023-04-03T05:23:05;4.40;3.10
780;DHT22;373;49.342;8.146;2023-04-03T05:25:34;4.50;1.00
780;DHT22;373;49.342;8.146;2023-04-03T05:28:04;4.50;1.00
780;DHT22;373;49.342;8.146;2023-04-03T05:30:31;4.40;1.00
780;DHT22;373;49.342;8.146;2023-04-03T05:33:01;4.50;99.90
780;DHT22;373;49.342;8.146;2023-04-03T05:35:38;4.50;95.30
780;DHT22;373;49.342;8.146;2023-04-03T05:38:09;4.40;99.90
780;DHT22;373;49.342;8.146;2023-04-03T05:40:37;4.40;99.90
780;DHT22;373;49.342;8.146;2023-04-03T05:43:05;4.40;99.90
780;DHT22;373;49.342;8.146;2023-04-03T05:45:36;4.60;1.00
780;DHT22;373;49.342;8.146;2023-04-03T05:48:03;4.80;99.90
780;DHT22;373;49.342;8.146;2023-04-03T05:50:31;5.10;1.00
780;DHT22;373;49.342;8.146;2023-04-03T05:53:00;5.40;1.00
780;DHT22;373;49.342;8.146;2023-04-03T05:55:31;5.70;99.90
780;DHT22;373;49.342;8.146;2023-04-03T05:57:59;5.60;99.90
780;DHT22;373;49.342;8.146;2023-04-03T06:00:26;5.50;99.90
780;DHT22;373;49.342;8.146;2023-04-03T06:03:00;5.40;99.90
780;DHT22;373;49.342;8.146;2023-04-03T06:05:28;5.30;99.90
780;DHT22;373;49.342;8.146;2023-04-03T06:07:55;5.40;99.90
780;DHT22;373;49.342;8.146;2023-04-03T06:10:24;5.50;99.90
780;DHT22;373;49.342;8.146;2023-04-03T06:12:51;5.60;1.00
780;DHT22;373;49.342;8.146;2023-04-03T06:15:19;6.00;99.90
780;DHT22;373;49.342;8.146;2023-04-03T06:17:46;6.20;99.90
780;DHT22;373;49.342;8.146;2023-04-03T06:20:13;6.30;99.90
780;DHT22;373;49.342;8.146;2023-04-03T06:22:40;6.60;91.70
780;DHT22;373;49.342;8.146;2023-04-03T06:25:08;6.50;90.90
780;DHT22;373;49.342;8.146;2023-04-03T06:27:38;6.10;99.90
780;DHT22;373;49.342;8.146;2023-04-03T06:30:06;6.10;1.00
780;DHT22;373;49.342;8.146;2023-04-03T06:32:34;6.20;1.00
780;DHT22;373;49.342;8.146;2023-04-03T06:35:01;6.30;99.90
780;DHT22;373;49.342;8.146;2023-04-03T06:37:28;6.00;99.90
780;DHT22;373;49.342;8.146;2023-04-03T06:39:56;6.00;3.00
780;DHT22;373;49.342;8.146;2023-04-03T06:42:23;6.20;1.00
780;DHT22;373;49.342;8.146;2023-04-03T06:45:01;6.50;1.00
780;DHT22;373;49.342;8.146;2023-04-03T06:47:28;6.40;99.90
780;DHT22;373;49.342;8.146;2023-04-03T06:49:56;6.80;99.90
780;DHT22;373;49.342;8.146;2023-04-03T06:52:23;7.10;99.90
780;DHT22;373;49.342;8.146;2023-04-03T06:54:50;7.50;99.90
780;DHT22;373;49.342;8.146;2023-04-03T06:57:22;7.60;38.30
780;DHT22;373;49.342;8.146;2023-04-03T06:59:50;7.70;1.00
780;DHT22;373;49.342;8.146;2023-04-03T07:02:18;7.70;31.70
780;DHT22;373;49.342;8.146;2023-04-03T07:04:46;8.10;1.00
780;DHT22;373;49.342;8.146;2023-04-03T07:07:13;7.80;1.00
780;DHT22;373;49.342;8.146;2023-04-03T07:09:41;7.70;30.90
780;DHT22;373;49.342;8.146;2023-04-03T07:12:09;7.70;1.00
780;DHT22;373;49.342;8.146;2023-04-03T07:14:36;7.40;88.40
780;DHT22;373;49.342;8.146;2023-04-03T07:17:03;7.80;1.00
780;DHT22;373;49.342;8.146;2023-04-03T07:19:32;7.80;1.00
780;DHT22;373;49.342;8.146;2023-04-03T07:21:59;7.60;6.20
780;DHT22;373;49.342;8.146;2023-04-03T07:24:26;7.70;31.20
780;DHT22;373;49.342;8.146;2023-04-03T07:26:53;7.80;15.90
780;DHT22;373;49.342;8.146;2023-04-03T07:29:21;8.00;1.00
780;DHT22;373;49.342;8.146;2023-04-03T07:31:48;8.20;1.00
780;DHT22;373;49.342;8.146;2023-04-03T07:34:15;7.70;1.00
780;DHT22;373;49.342;8.146;2023-04-03T07:36:44;7.90;1.00
780;DHT22;373;49.342;8.146;2023-04-03T07:39:11;7.90;1.00
780;DHT22;373;49.342;8.146;2023-04-03T07:41:38;8.50;1.00
780;DHT22;373;49.342;8.146;2023-04-03T07:44:05;8.70;1.00
780;DHT22;373;49.342;8.146;2023-04-03T07:46:35;8.90;1.00
780;DHT22;373;49.342;8.146;2023-04-03T07:49:02;8.30;1.00
780;DHT22;373;49.342;8.146;2023-04-03T07:51:29;8.00;1.00
780;DHT22;373;49.342;8.146;2023-04-03T07:53:58;8.30;1.00
780;DHT22;373;49.342;8.146;2023-04-03T07:56:25;8.40;1.00
780;DHT22;373;49.342;8.146;2023-04-03T07:58:52;8.40;1.00
780;DHT22;373;49.342;8.146;2023-04-03T08:01:19;8.90;1.00
780;DHT22;373;49.342;8.146;2023-04-03T08:03:46;8.80;1.00
780;DHT22;373;49.342;8.146;2023-04-03T08:06:14;8.70;1.00
780;DHT22;373;49.342;8.146;2023-04-03T08:08:41;8.80;1.00
780;DHT22;373;49.342;8.146;2023-04-03T08:11:10;8.70;99.90
780;DHT22;373;49.342;8.146;2023-04-03T08:13:38;8.90;99.90
780;DHT22;373;49.342;8.146;2023-04-03T08:16:09;8.60;1.00
780;DHT22;373;49.342;8.146;2023-04-03T08:18:37;8.80;1.00
780;DHT22;373;49.342;8.146;2023-04-03T08:21:09;9.10;99.90
780;DHT22;373;49.342;8.146;2023-04-03T08:23:37;9.30;99.90
780;DHT22;373;49.342;8.146;2023-04-03T08:26:10;9.30;99.90
780;DHT22;373;49.342;8.146;2023-04-03T08:28:38;9.60;99.90
780;DHT22;373;49.342;8.146;2023-04-03T08:31:07;10.10;99.90
780;DHT22;373;49.342;8.146;2023-04-03T08:33:36;10.20;99.90
780;DHT22;373;49.342;8.146;2023-04-03T08:36:05;10.20;99.90
780;DHT22;373;49.342;8.146;2023-04-03T08:38:32;10.20;99.90
780;DHT22;373;49.342;8.146;2023-04-03T08:41:06;10.50;99.90
780;DHT22;373;49.342;8.146;2023-04-03T08:43:52;10.10;99.90
780;DHT22;373;49.342;8.146;2023-04-03T08:46:23;9.80;99.90
780;DHT22;373;49.342;8.146;2023-04-03T08:48:53;9.30;99.90
780;DHT22;373;49.342;8.146;2023-04-03T08:51:22;9.70;99.90
780;DHT22;373;49.342;8.146;2023-04-03T08:53:56;9.80;99.90
780;DHT22;373;49.342;8.146;2023-04-03T08:56:25;10.10;99.90
780;DHT22;373;49.342;8.146;2023-04-03T08:58:56;10.30;99.90
780;DHT22;373;49.342;8.146;2023-04-03T09:01:27;10.20;99.90
780;DHT22;373;49.342;8.146;2023-04-03T09:03:56;10.40;99.90
780;DHT22;373;49.342;8.146;2023-04-03T09:06:26;10.40;99.90
780;DHT22;373;49.342;8.146;2023-04-03T09:09:05;10.40;99.90
780;DHT22;373;49.342;8.146;2023-04-03T09:11:44;9.90;97.70
780;DHT22;373;49.342;8.146;2023-04-03T09:14:20;9.60;98.70
780;DHT22;373;49.342;8.146;2023-04-03T09:16:54;9.80;97.70
780;DHT22;373;49.342;8.146;2023-04-03T09:19:29;10.10;98.30
780;DHT22;373;49.342;8.146;2023-04-03T09:22:07;10.70;97.50
780;DHT22;373;49.342;8.146;2023-04-03T09:24:38;10.30;90.90
780;DHT22;373;49.342;8.146;2023-04-03T09:27:09;10.00;90.40
780;DHT22;373;49.342;8.146;2023-04-03T09:29:40;10.20;90.50
780;DHT22;373;49.342;8.146;2023-04-03T09:32:19;9.90;90.00
780;DHT22;373;49.342;8.146;2023-04-03T09:34:49;10.10;90.90
780;DHT22;373;49.342;8.146;2023-04-03T09:37:37;10.70;90.10
780;DHT22;373;49.342;8.146;2023-04-03T09:40:05;10.50;82.90
780;DHT22;373;49.342;8.146;2023-04-03T09:42:34;10.00;76.10
780;DHT22;373;49.342;8.146;2023-04-03T09:45:22;10.30;79.00
780;DHT22;373;49.342;8.146;2023-04-03T09:48:06;10.80;81.70
780;DHT22;373;49.342;8.146;2023-04-03T09:50:35;10.20;72.10
780;DHT22;373;49.342;8.146;2023-04-03T09:53:07;9.90;71.70
780;DHT22;373;49.342;8.146;2023-04-03T09:55:42;9.90;71.00
780;DHT22;373;49.342;8.146;2023-04-03T09:58:25;9.60;69.10
780;DHT22;373;49.342;8.146;2023-04-03T10:00:59;9.20;67.50
780;DHT22;373;49.342;8.146;2023-04-03T10:03:29;9.50;70.10
780;DHT22;373;49.342;8.146;2023-04-03T10:05:57;9.40;69.80
780;DHT22;373;49.342;8.146;2023-04-03T10:08:28;9.20;68.80
780;DHT22;373;49.342;8.146;2023-04-03T10:11:07;9.20;69.30
780;DHT22;373;49.342;8.146;2023-04-03T10:13:35;9.50;68.90
780;DHT22;373;49.342;8.146;2023-04-03T10:16:07;9.70;67.90
780;DHT22;373;49.342;8.146;2023-04-03T10:18:41;9.60;66.80
780;DHT22;373;49.342;8.146;2023-04-03T10:21:15;10.40;67.90
780;DHT22;373;49.342;8.146;2023-04-03T10:23:51;10.30;68.00
780;DHT22;373;49.342;8.146;2023-04-03T10:26:29;10.40;68.40
780;DHT22;373;49.342;8.146;2023-04-03T10:29:04;10.70;70.00
780;DHT22;373;49.342;8.146;2023-04-03T10:31:40;10.80;69.40
780;DHT22;373;49.342;8.146;2023-04-03T10:34:18;10.50;67.30
780;DHT22;373;49.342;8.146;2023-04-03T10:36:52;10.30;66.30
780;DHT22;373;49.342;8.146;2023-04-03T10:39:28;9.90;65.30
780;DHT22;373;49.342;8.146;2023-04-03T10:42:03;9.70;64.30
780;DHT22;373;49.342;8.146;2023-04-03T10:44:40;9.40;66.20
780;DHT22;373;49.342;8.146;2023-04-03T10:47:15;9.60;68.40
780;DHT22;373;49.342;8.146;2023-04-03T10:49:51;9.90;72.50
780;DHT22;373;49.342;8.146;2023-04-03T10:52:24;10.10;69.60
780;DHT22;373;49.342;8.146;2023-04-03T10:55:02;9.60;68.40
780;DHT22;373;49.342;8.146;2023-04-03T10:57:33;9.50;69.30
780;DHT22;373;49.342;8.146;2023-04-03T11:00:05;9.10;68.80
780;DHT22;373;49.342;8.146;2023-04-03T11:02:37;8.70;70.90
780;DHT22;373;49.342;8.146;2023-04-03T11:05:17;9.00;71.20
780;DHT22;373;49.342;8.146;2023-04-03T11:07:48;9.20;67.50
780;DHT22;373;49.342;8.146;2023-04-03T11:10:23;9.10;67.70
780;DHT22;373;49.342;8.146;2023-04-03T11:12:54;8.90;69.40
780;DHT22;373;49.342;8.146;2023-04-03T11:15:24;9.00;69.70
780;DHT22;373;49.342;8.146;2023-04-03T11:17:55;8.90;71.40
780;DHT22;373;49.342;8.146;2023-04-03T11:20:27;8.90;68.40
780;DHT22;373;49.342;8.146;2023-04-03T11:23:01;9.10;66.80
780;DHT22;373;49.342;8.146;2023-04-03T11:25:30;9.30;67.10
780;DHT22;373;49.342;8.146;2023-04-03T11:28:00;9.40;69.40
780;DHT22;373;49.342;8.146;2023-04-03T11:30:32;9.40;67.50
780;DHT22;373;49.342;8.146;2023-04-03T11:33:23;9.50;69.00
780;DHT22;373;49.342;8.146;2023-04-03T11:35:55;9.60;69.70
780;DHT22;373;49.342;8.146;2023-04-03T11:38:27;9.80;64.50
780;DHT22;373;49.342;8.146;2023-04-03T11:40:56;9.80;60.70
780;DHT22;373;49.342;8.146;2023-04-03T11:43:26;9.70;58.60
780;DHT22;373;49.342;8.146;2023-04-03T11:45:58;9.90;56.50
780;DHT22;373;49.342;8.146;2023-04-03T11:48:49;9.50;54.60
780;DHT22;373;49.342;8.146;2023-04-03T11:51:42;9.60;52.30
780;DHT22;373;49.342;8.146;2023-04-03T11:54:44;9.50;50.40
780;DHT22;373;49.342;8.146;2023-04-03T11:57:47;9.20;50.60
780;DHT22;373;49.342;8.146;2023-04-03T12:00:48;9.50;53.90
780;DHT22;373;49.342;8.146;2023-04-03T12:06:58;9.20;49.40
780;DHT22;373;49.342;8.146;2023-04-03T12:12:34;9.60;46.20
780;DHT22;373;49.342;8.146;2023-04-03T12:15:26;9.70;46.50
780;DHT22;373;49.342;8.146;2023-04-03T12:17:53;9.60;47.60
780;DHT22;373;49.342;8.146;2023-04-03T12:20:46;9.50;47.50
780;DHT22;373;49.342;8.146;2023-04-03T12:23:26;9.80;50.10
780;DHT22;373;49.342;8.146;2023-04-03T12:26:05;10.00;46.80
780;DHT22;373;49.342;8.146;2023-04-03T12:28:39;9.70;46.00
780;DHT22;373;49.342;8.146;2023-04-03T12:31:09;9.30;43.60
780;DHT22;373;49.342;8.146;2023-04-03T12:33:51;9.50;44.90
780;DHT22;373;49.342;8.146;2023-04-03T12:36:29;9.70;44.60
780;DHT22;373;49.342;8.146;2023-04-03T12:39:07;9.80;45.30
780;DHT22;373;49.342;8.146;2023-04-03T12:41:43;9.40;42.10
780;DHT22;373;49.342;8.146;2023-04-03T12:44:24;9.20;41.00
780;DHT22;373;49.342;8.146;2023-04-03T12:46:54;9.30;43.00
780;DHT22;373;49.342;8.146;2023-04-03T12:49:33;9.30;42.30
780;DHT22;373;49.342;8.146;2023-04-03T12:52:03;9.20;41.60
780;DHT22;373;49.342;8.146;2023-04-03T12:54:36;9.00;40.40
780;DHT22;373;49.342;8.146;2023-04-03T12:57:12;9.30;41.20
780;DHT22;373;49.342;8.146;2023-04-03T12:59:40;9.40;41.80
780;DHT22;373;49.342;8.146;2023-04-03T13:02:24;9.30;41.70
780;DHT22;373;49.342;8.146;2023-04-03T13:04:54;9.30;40.50
780;DHT22;373;49.342;8.146;2023-04-03T13:07:27;9.20;40.10
780;DHT22;373;49.342;8.146;2023-04-03T13:10:00;9.10;40.70
780;DHT22;373;49.342;8.146;2023-04-03T13:12:34;9.00;40.50
780;DHT22;373;49.342;8.146;2023-04-03T13:15:12;8.80;39.50
780;DHT22;373;49.342;8.146;2023-04-03T13:17:41;9.30;42.80
780;DHT22;373;49.342;8.146;2023-04-03T13:20:15;9.60;43.70
780;DHT22;373;49.342;8.146;2023-04-03T13:22:49;9.50;40.60
780;DHT22;373;49.342;8.146;2023-04-03T13:25:20;9.30;38.60
780;DHT22;373;49.342;8.146;2023-04-03T13:27:47;9.10;37.50
780;DHT22;373;49.342;8.146;2023-04-03T13:30:25;9.10;39.00
780;DHT22;373;49.342;8.146;2023-04-03T13:32:53;9.30;37.90
780;DHT22;373;49.342;8.146;2023-04-03T13:35:29;9.20;33.60
780;DHT22;373;49.342;8.146;2023-04-03T13:37:58;9.10;31.00
780;DHT22;373;49.342;8.146;2023-04-03T13:40:27;9.40;34.10
780;DHT22;373;49.342;8.146;2023-04-03T13:43:04;9.70;35.70
780;DHT22;373;49.342;8.146;2023-04-03T13:45:32;9.60;44.70
780;DHT22;373;49.342;8.146;2023-04-03T13:48:16;9.40;32.90
780;DHT22;373;49.342;8.146;2023-04-03T13:50:53;9.00;30.00
780;DHT22;373;49.342;8.146;2023-04-03T13:53:21;9.20;32.50
780;DHT22;373;49.342;8.146;2023-04-03T13:55:59;9.40;35.00
780;DHT22;373;49.342;8.146;2023-04-03T13:58:28;9.60;34.90
780;DHT22;373;49.342;8.146;2023-04-03T14:01:05;9.70;33.50
780;DHT22;373;49.342;8.146;2023-04-03T14:03:41;9.00;30.40
780;DHT22;373;49.342;8.146;2023-04-03T14:06:12;9.10;31.60
780;DHT22;373;49.342;8.146;2023-04-03T14:08:40;9.30;31.50
780;DHT22;373;49.342;8.146;2023-04-03T14:11:13;9.80;34.10
780;DHT22;373;49.342;8.146;2023-04-03T14:13:41;10.20;33.50
780;DHT22;373;49.342;8.146;2023-04-03T14:16:13;10.10;35.00
780;DHT22;373;49.342;8.146;2023-04-03T14:18:43;9.60;30.90
780;DHT22;373;49.342;8.146;2023-04-03T14:21:11;9.40;30.50
780;DHT22;373;49.342;8.146;2023-04-03T14:23:39;9.00;29.00
780;DHT22;373;49.342;8.146;2023-04-03T14:26:12;9.00;29.90
780;DHT22;373;49.342;8.146;2023-04-03T14:28:39;9.30;31.60
780;DHT22;373;49.342;8.146;2023-04-03T14:31:07;9.40;32.50
780;DHT22;373;49.342;8.146;2023-04-03T14:33:34;9.50;43.20
780;DHT22;373;49.342;8.146;2023-04-03T14:36:10;9.50;33.10
780;DHT22;373;49.342;8.146;2023-04-03T14:38:38;9.50;34.30
780;DHT22;373;49.342;8.146;2023-04-03T14:41:06;9.20;32.90
780;DHT22;373;49.342;8.146;2023-04-03T14:43:34;9.20;32.70
780;DHT22;373;49.342;8.146;2023-04-03T14:46:01;8.90;30.90
780;DHT22;373;49.342;8.146;2023-04-03T14:48:29;9.10;32.40
780;DHT22;373;49.342;8.146;2023-04-03T14:50:57;9.40;34.30
780;DHT22;373;49.342;8.146;2023-04-03T14:53:24;9.60;32.70
780;DHT22;373;49.342;8.146;2023-04-03T14:55:52;9.60;31.90
780;DHT22;373;49.342;8.146;2023-04-03T14:58:20;9.60;30.80
780;DHT22;373;49.342;8.146;2023-04-03T15:00:49;9.50;29.60
780;DHT22;373;49.342;8.146;2023-04-03T15:03:18;9.60;28.30
780;DHT22;373;49.342;8.146;2023-04-03T15:05:47;9.60;27.20
780;DHT22;373;49.342;8.146;2023-04-03T15:08:19;9.90;28.70
780;DHT22;373;49.342;8.146;2023-04-03T15:10:47;10.00;27.00
780;DHT22;373;49.342;8.146;2023-04-03T15:13:15;9.80;26.80
780;DHT22;373;49.342;8.146;2023-04-03T15:15:43;9.70;26.70
780;DHT22;373;49.342;8.146;2023-04-03T15:18:15;9.30;23.90
780;DHT22;373;49.342;8.146;2023-04-03T15:20:43;9.20;23.10
780;DHT22;373;49.342;8.146;2023-04-03T15:23:12;8.90;20.30
780;DHT22;373;49.342;8.146;2023-04-03T15:25:43;8.80;20.10
780;DHT22;373;49.342;8.146;2023-04-03T15:28:18;8.90;20.10
780;DHT22;373;49.342;8.146;2023-04-03T15:30:45;9.10;20.40
780;DHT22;373;49.342;8.146;2023-04-03T15:33:14;9.30;19.30
780;DHT22;373;49.342;8.146;2023-04-03T15:35:42;9.50;20.60
780;DHT22;373;49.342;8.146;2023-04-03T15:38:10;9.70;21.30
780;DHT22;373;49.342;8.146;2023-04-03T15:40:37;9.80;20.60
780;DHT22;373;49.342;8.146;2023-04-03T15:43:05;9.70;20.30
780;DHT22;373;49.342;8.146;2023-04-03T15:45:33;9.60;18.40
780;DHT22;373;49.342;8.146;2023-04-03T15:48:02;9.30;15.40
780;DHT22;373;49.342;8.146;2023-04-03T15:50:31;9.10;14.20
780;DHT22;373;49.342;8.146;2023-04-03T15:52:58;9.10;14.50
780;DHT22;373;49.342;8.146;2023-04-03T15:55:29;9.00;13.60
780;DHT22;373;49.342;8.146;2023-04-03T15:57:56;8.90;14.00
780;DHT22;373;49.342;8.146;2023-04-03T16:00:24;9.00;14.60
780;DHT22;373;49.342;8.146;2023-04-03T16:02:54;9.20;18.80
780;DHT22;373;49.342;8.146;2023-04-03T16:05:23;9.30;17.80
780;DHT22;373;49.342;8.146;2023-04-03T16:07:52;9.40;14.40
780;DHT22;373;49.342;8.146;2023-04-03T16:10:19;9.50;15.30
780;DHT22;373;49.342;8.146;2023-04-03T16:12:46;9.50;15.20
780;DHT22;373;49.342;8.146;2023-04-03T16:15:13;9.20;13.10
780;DHT22;373;49.342;8.146;2023-04-03T16:17:41;9.20;12.90
780;DHT22;373;49.342;8.146;2023-04-03T16:20:10;9.30;13.70
780;DHT22;373;49.342;8.146;2023-04-03T16:22:38;9.40;14.10
780;DHT22;373;49.342;8.146;2023-04-03T16:25:08;9.10;13.40
780;DHT22;373;49.342;8.146;2023-04-03T16:27:35;9.10;13.40
780;DHT22;373;49.342;8.146;2023-04-03T16:30:03;9.00;12.70
780;DHT22;373;49.342;8.146;2023-04-03T16:32:31;8.90;12.00
780;DHT22;373;49.342;8.146;2023-04-03T16:34:59;8.90;12.10
780;DHT22;373;49.342;8.146;2023-04-03T16:37:26;8.80;11.20
780;DHT22;373;49.342;8.146;2023-04-03T16:39:53;8.70;10.80
780;DHT22;373;49.342;8.146;2023-04-03T16:42:24;8.80;10.50
780;DHT22;373;49.342;8.146;2023-04-03T16:44:51;8.90;10.40
780;DHT22;373;49.342;8.146;2023-04-03T16:47:18;9.00;10.50
780;DHT22;373;49.342;8.146;2023-04-03T16:49:45;8.90;9.90
780;DHT22;373;49.342;8.146;2023-04-03T16:52:13;8.80;8.30
780;DHT22;373;49.342;8.146;2023-04-03T16:54:40;8.70;7.30
780;DHT22;373;49.342;8.146;2023-04-03T16:57:07;8.80;8.50
780;DHT22;373;49.342;8.146;2023-04-03T16:59:36;8.80;7.40
780;DHT22;373;49.342;8.146;2023-04-03T17:02:03;8.80;7.70
780;DHT22;373;49.342;8.146;2023-04-03T17:04:30;8.70;6.70
780;DHT22;373;49.342;8.146;2023-04-03T17:06:57;8.90;8.80
780;DHT22;373;49.342;8.146;2023-04-03T17:09:25;8.80;7.30
780;DHT22;373;49.342;8.146;2023-04-03T17:11:52;8.90;8.40
780;DHT22;373;49.342;8.146;2023-04-03T17:14:20;8.80;8.00
780;DHT22;373;49.342;8.146;2023-04-03T17:16:48;8.80;7.30
780;DHT22;373;49.342;8.146;2023-04-03T17:19:16;8.70;7.60
780;DHT22;373;49.342;8.146;2023-04-03T17:21:43;8.80;8.70
780;DHT22;373;49.342;8.146;2023-04-03T17:24:12;8.70;9.00
780;DHT22;373;49.342;8.146;2023-04-03T17:26:41;8.80;10.00
780;DHT22;373;49.342;8.146;2023-04-03T17:29:08;8.50;9.80